sensor_id;sensor_type;location;lat;lon;timestamp;P1;durP1;ratioP1;P2;durP2;ratioP2
78430;SDS011;67727;50.236;22.452;2023-07-20T00:01:14;13.10;;;5.10;;
78430;SDS011;67727;50.236;22.452;2023-07-20T00:03:46;10.20;;;6.00;;
78430;SDS011;67727;50.236;22.452;2023-07-20T00:06:22;7.70;;;5.40;;
78430;SDS011;67727;50.236;22.452;2023-07-20T00:08:55;8.90;;;5.50;;
78430;SDS011;67727;50.236;22.452;2023-07-20T00:11:27;8.60;;;5.20;;
78430;SDS011;67727;50.236;22.452;2023-07-20T00:14:04;9.90;;;5.50;;
78430;SDS011;67727;50.236;22.452;2023-07-20T00:16:34;8.20;;;4.90;;
78430;SDS011;67727;50.236;22.452;2023-07-20T00:19:09;7.50;;;5.30;;
78430;SDS011;67727;50.236;22.452;2023-07-20T00:21:37;9.40;;;5.70;;
78430;SDS011;67727;50.236;22.452;2023-07-20T00:24:17;10.30;;;6.20;;
78430;SDS011;67727;50.236;22.452;2023-07-20T00:26:46;9.10;;;5.70;;
78430;SDS011;67727;50.236;22.452;2023-07-20T00:29:14;8.80;;;5.10;;
78430;SDS011;67727;50.236;22.452;2023-07-20T00:31:42;15.80;;;6.00;;
78430;SDS011;67727;50.236;22.452;2023-07-20T00:34:11;9.60;;;6.20;;
78430;SDS011;67727;50.236;22.452;2023-07-20T00:36:39;9.70;;;5.70;;
78430;SDS011;67727;50.236;22.452;2023-07-20T00:39:08;10.50;;;5.90;;
78430;SDS011;67727;50.236;22.452;2023-07-20T00:41:36;12.10;;;6.60;;
78430;SDS011;67727;50.236;22.452;2023-07-20T00:44:07;9.30;;;6.30;;
78430;SDS011;67727;50.236;22.452;2023-07-20T00:46:37;7.40;;;5.40;;
78430;SDS011;67727;50.236;22.452;2023-07-20T00:49:05;8.50;;;5.70;;
78430;SDS011;67727;50.236;22.452;2023-07-20T00:51:33;9.00;;;5.70;;
78430;SDS011;67727;50.236;22.452;2023-07-20T00:54:07;12.40;;;6.20;;
78430;SDS011;67727;50.236;22.452;2023-07-20T00:56:35;10.20;;;6.60;;
78430;SDS011;67727;50.236;22.452;2023-07-20T00:59:05;10.00;;;5.90;;
78430;SDS011;67727;50.236;22.452;2023-07-20T01:01:33;14.30;;;7.00;;
78430;SDS011;67727;50.236;22.452;2023-07-20T01:04:04;9.40;;;6.00;;
78430;SDS011;67727;50.236;22.452;2023-07-20T01:09:43;9.90;;;6.40;;
78430;SDS011;67727;50.236;22.452;2023-07-20T01:12:51;9.20;;;5.60;;
78430;SDS011;67727;50.236;22.452;2023-07-20T01:15:23;8.70;;;5.60;;
78430;SDS011;67727;50.236;22.452;2023-07-20T01:17:57;8.10;;;5.70;;
78430;SDS011;67727;50.236;22.452;2023-07-20T01:20:28;8.70;;;5.80;;
78430;SDS011;67727;50.236;22.452;2023-07-20T01:26:08;11.70;;;7.00;;
78430;SDS011;67727;50.236;22.452;2023-07-20T01:29:17;8.40;;;5.60;;
78430;SDS011;67727;50.236;22.452;2023-07-20T01:32:03;9.70;;;6.90;;
78430;SDS011;67727;50.236;22.452;2023-07-20T01:34:38;8.90;;;6.10;;
78430;SDS011;67727;50.236;22.452;2023-07-20T01:37:08;12.20;;;5.70;;
78430;SDS011;67727;50.236;22.452;2023-07-20T01:39:37;11.50;;;6.50;;
78430;SDS011;67727;50.236;22.452;2023-07-20T01:42:08;10.90;;;6.30;;
78430;SDS011;67727;50.236;22.452;2023-07-20T01:44:37;10.60;;;6.40;;
78430;SDS011;67727;50.236;22.452;2023-07-20T01:47:08;9.40;;;6.60;;
78430;SDS011;67727;50.236;22.452;2023-07-20T01:49:36;8.50;;;6.20;;
78430;SDS011;67727;50.236;22.452;2023-07-20T01:52:04;8.70;;;5.80;;
78430;SDS011;67727;50.236;22.452;2023-07-20T01:54:33;11.40;;;5.90;;
78430;SDS011;67727;50.236;22.452;2023-07-20T01:57:03;10.40;;;5.70;;
78430;SDS011;67727;50.236;22.452;2023-07-20T01:59:37;16.00;;;6.10;;
78430;SDS011;67727;50.236;22.452;2023-07-20T02:02:05;9.40;;;5.90;;
78430;SDS011;67727;50.236;22.452;2023-07-20T02:04:42;12.70;;;6.60;;
78430;SDS011;67727;50.236;22.452;2023-07-20T02:07:14;12.20;;;6.20;;
78430;SDS011;67727;50.236;22.452;2023-07-20T02:09:42;14.40;;;6.00;;
78430;SDS011;67727;50.236;22.452;2023-07-20T02:12:10;10.10;;;6.50;;
78430;SDS011;67727;50.236;22.452;2023-07-20T02:14:43;10.20;;;6.20;;
78430;SDS011;67727;50.236;22.452;2023-07-20T02:17:14;13.50;;;6.00;;
78430;SDS011;67727;50.236;22.452;2023-07-20T02:19:42;8.30;;;5.60;;
78430;SDS011;67727;50.236;22.452;2023-07-20T02:22:12;7.70;;;5.80;;
78430;SDS011;67727;50.236;22.452;2023-07-20T02:24:49;11.10;;;6.20;;
78430;SDS011;67727;50.236;22.452;2023-07-20T02:27:19;9.90;;;5.60;;
78430;SDS011;67727;50.236;22.452;2023-07-20T02:29:48;9.60;;;5.60;;
78430;SDS011;67727;50.236;22.452;2023-07-20T02:32:20;10.80;;;4.60;;
78430;SDS011;67727;50.236;22.452;2023-07-20T02:34:51;8.10;;;4.90;;
78430;SDS011;67727;50.236;22.452;2023-07-20T02:37:24;12.30;;;5.50;;
78430;SDS011;67727;50.236;22.452;2023-07-20T02:39:52;10.50;;;6.60;;
78430;SDS011;67727;50.236;22.452;2023-07-20T02:42:21;12.50;;;5.60;;
78430;SDS011;67727;50.236;22.452;2023-07-20T02:44:52;9.70;;;5.60;;
78430;SDS011;67727;50.236;22.452;2023-07-20T02:47:21;10.40;;;5.20;;
78430;SDS011;67727;50.236;22.452;2023-07-20T02:49:52;10.00;;;4.80;;
78430;SDS011;67727;50.236;22.452;2023-07-20T02:52:21;9.00;;;5.30;;
78430;SDS011;67727;50.236;22.452;2023-07-20T02:54:51;11.60;;;5.90;;
78430;SDS011;67727;50.236;22.452;2023-07-20T02:57:19;13.40;;;7.00;;
78430;SDS011;67727;50.236;22.452;2023-07-20T02:59:50;7.80;;;5.30;;
78430;SDS011;67727;50.236;22.452;2023-07-20T03:02:22;7.80;;;5.10;;
78430;SDS011;67727;50.236;22.452;2023-07-20T03:04:50;10.30;;;4.70;;
78430;SDS011;67727;50.236;22.452;2023-07-20T03:07:21;13.60;;;7.70;;
78430;SDS011;67727;50.236;22.452;2023-07-20T03:09:49;10.30;;;5.50;;
78430;SDS011;67727;50.236;22.452;2023-07-20T03:12:17;9.00;;;5.70;;
78430;SDS011;67727;50.236;22.452;2023-07-20T03:14:44;10.10;;;5.20;;
78430;SDS011;67727;50.236;22.452;2023-07-20T03:17:13;13.70;;;5.60;;
78430;SDS011;67727;50.236;22.452;2023-07-20T03:19:41;8.70;;;5.60;;
78430;SDS011;67727;50.236;22.452;2023-07-20T03:22:09;17.10;;;5.90;;
78430;SDS011;67727;50.236;22.452;2023-07-20T03:24:37;10.00;;;5.10;;
78430;SDS011;67727;50.236;22.452;2023-07-20T03:27:07;11.90;;;6.00;;
78430;SDS011;67727;50.236;22.452;2023-07-20T03:29:35;16.60;;;5.70;;
78430;SDS011;67727;50.236;22.452;2023-07-20T03:32:03;17.40;;;6.30;;
78430;SDS011;67727;50.236;22.452;2023-07-20T03:34:34;11.60;;;6.20;;
78430;SDS011;67727;50.236;22.452;2023-07-20T03:37:03;16.00;;;5.30;;
78430;SDS011;67727;50.236;22.452;2023-07-20T03:39:34;18.40;;;6.80;;
78430;SDS011;67727;50.236;22.452;2023-07-20T03:42:02;14.50;;;6.90;;
78430;SDS011;67727;50.236;22.452;2023-07-20T03:44:31;18.90;;;6.60;;
78430;SDS011;67727;50.236;22.452;2023-07-20T03:47:02;13.90;;;7.40;;
78430;SDS011;67727;50.236;22.452;2023-07-20T03:49:32;14.90;;;6.50;;
78430;SDS011;67727;50.236;22.452;2023-07-20T03:52:02;13.40;;;6.90;;
78430;SDS011;67727;50.236;22.452;2023-07-20T03:54:33;11.90;;;6.60;;
78430;SDS011;67727;50.236;22.452;2023-07-20T03:57:01;14.60;;;6.70;;
78430;SDS011;67727;50.236;22.452;2023-07-20T03:59:31;18.60;;;6.80;;
78430;SDS011;67727;50.236;22.452;2023-07-20T04:02:02;17.30;;;6.00;;
78430;SDS011;67727;50.236;22.452;2023-07-20T04:04:36;20.90;;;7.00;;
78430;SDS011;67727;50.236;22.452;2023-07-20T04:07:16;15.40;;;6.80;;
78430;SDS011;67727;50.236;22.452;2023-07-20T04:09:48;15.10;;;6.20;;
78430;SDS011;67727;50.236;22.452;2023-07-20T04:12:19;16.60;;;7.30;;
78430;SDS011;67727;50.236;22.452;2023-07-20T04:14:48;15.10;;;6.10;;
78430;SDS011;67727;50.236;22.452;2023-07-20T04:17:23;18.90;;;6.60;;
78430;SDS011;67727;50.236;22.452;2023-07-20T04:19:51;11.60;;;6.10;;
78430;SDS011;67727;50.236;22.452;2023-07-20T04:22:23;11.30;;;6.00;;
78430;SDS011;67727;50.236;22.452;2023-07-20T04:24:54;15.00;;;7.10;;
78430;SDS011;67727;50.236;22.452;2023-07-20T04:27:24;13.20;;;6.20;;
78430;SDS011;67727;50.236;22.452;2023-07-20T04:29:58;11.70;;;5.50;;
78430;SDS011;67727;50.236;22.452;2023-07-20T04:32:29;9.40;;;5.20;;
78430;SDS011;67727;50.236;22.452;2023-07-20T04:35:07;9.90;;;6.00;;
78430;SDS011;67727;50.236;22.452;2023-07-20T04:37:44;15.60;;;6.00;;
78430;SDS011;67727;50.236;22.452;2023-07-20T04:40:15;9.40;;;5.80;;
78430;SDS011;67727;50.236;22.452;2023-07-20T04:42:47;12.70;;;6.20;;
78430;SDS011;67727;50.236;22.452;2023-07-20T04:45:20;13.50;;;6.20;;
78430;SDS011;67727;50.236;22.452;2023-07-20T04:47:57;11.50;;;6.20;;
78430;SDS011;67727;50.236;22.452;2023-07-20T04:50:30;10.80;;;6.30;;
78430;SDS011;67727;50.236;22.452;2023-07-20T04:52:58;10.10;;;6.00;;
78430;SDS011;67727;50.236;22.452;2023-07-20T04:55:38;11.70;;;7.50;;
78430;SDS011;67727;50.236;22.452;2023-07-20T04:58:10;18.80;;;8.30;;
78430;SDS011;67727;50.236;22.452;2023-07-20T05:00:38;10.50;;;7.10;;
78430;SDS011;67727;50.236;22.452;2023-07-20T05:03:08;12.60;;;7.20;;
78430;SDS011;67727;50.236;22.452;2023-07-20T05:05:38;15.90;;;7.30;;
78430;SDS011;67727;50.236;22.452;2023-07-20T05:08:06;12.70;;;7.20;;
78430;SDS011;67727;50.236;22.452;2023-07-20T05:10:34;16.70;;;7.70;;
78430;SDS011;67727;50.236;22.452;2023-07-20T05:13:03;11.10;;;6.80;;
78430;SDS011;67727;50.236;22.452;2023-07-20T05:15:33;12.00;;;6.00;;
78430;SDS011;67727;50.236;22.452;2023-07-20T05:18:10;7.00;;;5.30;;
78430;SDS011;67727;50.236;22.452;2023-07-20T05:20:38;9.00;;;5.40;;
78430;SDS011;67727;50.236;22.452;2023-07-20T05:23:08;14.00;;;6.50;;
78430;SDS011;67727;50.236;22.452;2023-07-20T05:25:36;8.70;;;6.00;;
78430;SDS011;67727;50.236;22.452;2023-07-20T05:28:04;10.30;;;5.80;;
78430;SDS011;67727;50.236;22.452;2023-07-20T05:30:37;10.60;;;5.90;;
78430;SDS011;67727;50.236;22.452;2023-07-20T05:33:08;7.40;;;5.10;;
78430;SDS011;67727;50.236;22.452;2023-07-20T05:35:36;7.90;;;4.60;;
78430;SDS011;67727;50.236;22.452;2023-07-20T05:38:06;7.60;;;5.30;;
78430;SDS011;67727;50.236;22.452;2023-07-20T05:40:37;9.20;;;5.20;;
78430;SDS011;67727;50.236;22.452;2023-07-20T05:43:11;9.00;;;5.60;;
78430;SDS011;67727;50.236;22.452;2023-07-20T05:45:45;12.20;;;6.00;;
78430;SDS011;67727;50.236;22.452;2023-07-20T05:48:19;8.50;;;5.90;;
78430;SDS011;67727;50.236;22.452;2023-07-20T05:50:49;9.20;;;6.00;;
78430;SDS011;67727;50.236;22.452;2023-07-20T05:53:18;9.40;;;5.90;;
78430;SDS011;67727;50.236;22.452;2023-07-20T05:55:51;10.50;;;6.60;;
78430;SDS011;67727;50.236;22.452;2023-07-20T05:58:23;10.40;;;6.30;;
78430;SDS011;67727;50.236;22.452;2023-07-20T06:00:55;10.70;;;5.60;;
78430;SDS011;67727;50.236;22.452;2023-07-20T06:03:26;8.50;;;5.60;;
78430;SDS011;67727;50.236;22.452;2023-07-20T06:06:00;9.60;;;5.70;;
78430;SDS011;67727;50.236;22.452;2023-07-20T06:08:31;11.40;;;5.10;;
78430;SDS011;67727;50.236;22.452;2023-07-20T06:10:59;7.80;;;5.20;;
78430;SDS011;67727;50.236;22.452;2023-07-20T06:13:27;9.00;;;5.40;;
78430;SDS011;67727;50.236;22.452;2023-07-20T06:15:54;8.60;;;5.90;;
78430;SDS011;67727;50.236;22.452;2023-07-20T06:18:23;10.10;;;5.40;;
78430;SDS011;67727;50.236;22.452;2023-07-20T06:20:53;10.50;;;6.70;;
78430;SDS011;67727;50.236;22.452;2023-07-20T06:23:23;7.20;;;4.90;;
78430;SDS011;67727;50.236;22.452;2023-07-20T06:25:55;10.40;;;5.90;;
78430;SDS011;67727;50.236;22.452;2023-07-20T06:28:26;8.40;;;5.80;;
78430;SDS011;67727;50.236;22.452;2023-07-20T06:30:58;8.80;;;5.30;;
78430;SDS011;67727;50.236;22.452;2023-07-20T06:33:32;11.30;;;5.80;;
78430;SDS011;67727;50.236;22.452;2023-07-20T06:36:04;8.10;;;5.90;;
78430;SDS011;67727;50.236;22.452;2023-07-20T06:38:34;8.40;;;6.30;;
78430;SDS011;67727;50.236;22.452;2023-07-20T06:41:03;10.80;;;6.70;;
78430;SDS011;67727;50.236;22.452;2023-07-20T06:43:32;10.10;;;6.20;;
78430;SDS011;67727;50.236;22.452;2023-07-20T06:46:02;8.70;;;5.90;;
78430;SDS011;67727;50.236;22.452;2023-07-20T06:48:30;9.50;;;5.90;;
78430;SDS011;67727;50.236;22.452;2023-07-20T06:50:58;10.30;;;6.20;;
78430;SDS011;67727;50.236;22.452;2023-07-20T06:53:30;10.50;;;6.00;;
78430;SDS011;67727;50.236;22.452;2023-07-20T06:55:59;8.60;;;6.40;;
78430;SDS011;67727;50.236;22.452;2023-07-20T06:58:29;12.60;;;6.50;;
78430;SDS011;67727;50.236;22.452;2023-07-20T07:00:57;12.40;;;6.10;;
78430;SDS011;67727;50.236;22.452;2023-07-20T07:03:27;8.10;;;5.70;;
78430;SDS011;67727;50.236;22.452;2023-07-20T07:05:57;8.30;;;5.40;;
78430;SDS011;67727;50.236;22.452;2023-07-20T07:08:25;7.60;;;5.00;;
78430;SDS011;67727;50.236;22.452;2023-07-20T07:10:52;7.40;;;5.00;;
78430;SDS011;67727;50.236;22.452;2023-07-20T07:13:25;8.50;;;5.40;;
78430;SDS011;67727;50.236;22.452;2023-07-20T07:15:54;8.50;;;5.40;;
78430;SDS011;67727;50.236;22.452;2023-07-20T07:18:22;11.70;;;5.80;;
78430;SDS011;67727;50.236;22.452;2023-07-20T07:20:52;7.50;;;5.70;;
78430;SDS011;67727;50.236;22.452;2023-07-20T07:23:20;9.10;;;6.20;;
78430;SDS011;67727;50.236;22.452;2023-07-20T07:25:48;10.40;;;6.00;;
78430;SDS011;67727;50.236;22.452;2023-07-20T07:28:19;8.20;;;5.20;;
78430;SDS011;67727;50.236;22.452;2023-07-20T07:30:46;11.10;;;6.00;;
78430;SDS011;67727;50.236;22.452;2023-07-20T07:33:18;12.30;;;6.40;;
78430;SDS011;67727;50.236;22.452;2023-07-20T07:35:46;12.20;;;5.50;;
78430;SDS011;67727;50.236;22.452;2023-07-20T07:38:18;8.50;;;5.40;;
78430;SDS011;67727;50.236;22.452;2023-07-20T07:40:49;8.40;;;5.70;;
78430;SDS011;67727;50.236;22.452;2023-07-20T07:43:19;10.00;;;5.60;;
78430;SDS011;67727;50.236;22.452;2023-07-20T07:45:48;9.00;;;5.30;;
78430;SDS011;67727;50.236;22.452;2023-07-20T07:48:19;10.00;;;6.00;;
78430;SDS011;67727;50.236;22.452;2023-07-20T07:50:54;9.90;;;5.60;;
78430;SDS011;67727;50.236;22.452;2023-07-20T07:53:26;9.80;;;5.90;;
78430;SDS011;67727;50.236;22.452;2023-07-20T07:55:56;7.80;;;4.20;;
78430;SDS011;67727;50.236;22.452;2023-07-20T07:58:24;8.10;;;5.90;;
78430;SDS011;67727;50.236;22.452;2023-07-20T08:00:52;10.40;;;6.10;;
78430;SDS011;67727;50.236;22.452;2023-07-20T08:03:20;7.60;;;5.10;;
78430;SDS011;67727;50.236;22.452;2023-07-20T08:05:54;8.60;;;5.60;;
78430;SDS011;67727;50.236;22.452;2023-07-20T08:08:22;10.10;;;5.90;;
78430;SDS011;67727;50.236;22.452;2023-07-20T08:10:54;10.40;;;5.60;;
78430;SDS011;67727;50.236;22.452;2023-07-20T08:13:23;7.90;;;5.20;;
78430;SDS011;67727;50.236;22.452;2023-07-20T08:15:55;10.20;;;5.80;;
78430;SDS011;67727;50.236;22.452;2023-07-20T08:18:23;11.00;;;6.20;;
78430;SDS011;67727;50.236;22.452;2023-07-20T08:20:55;6.80;;;5.70;;
78430;SDS011;67727;50.236;22.452;2023-07-20T08:23:28;9.90;;;5.60;;
78430;SDS011;67727;50.236;22.452;2023-07-20T08:25:57;10.10;;;6.50;;
78430;SDS011;67727;50.236;22.452;2023-07-20T08:28:28;8.80;;;6.60;;
78430;SDS011;67727;50.236;22.452;2023-07-20T08:30:57;12.40;;;6.70;;
78430;SDS011;67727;50.236;22.452;2023-07-20T08:33:27;9.30;;;6.00;;
78430;SDS011;67727;50.236;22.452;2023-07-20T08:36:06;10.40;;;6.00;;
78430;SDS011;67727;50.236;22.452;2023-07-20T08:38:34;10.60;;;6.40;;
78430;SDS011;67727;50.236;22.452;2023-07-20T08:41:05;9.00;;;6.30;;
78430;SDS011;67727;50.236;22.452;2023-07-20T08:43:37;10.30;;;6.20;;
78430;SDS011;67727;50.236;22.452;2023-07-20T08:46:12;8.60;;;6.10;;
78430;SDS011;67727;50.236;22.452;2023-07-20T08:48:41;9.70;;;5.70;;
78430;SDS011;67727;50.236;22.452;2023-07-20T08:51:11;8.10;;;5.80;;
78430;SDS011;67727;50.236;22.452;2023-07-20T08:53:43;10.80;;;6.70;;
78430;SDS011;67727;50.236;22.452;2023-07-20T08:56:14;10.40;;;7.10;;
78430;SDS011;67727;50.236;22.452;2023-07-20T08:58:50;13.50;;;7.30;;
78430;SDS011;67727;50.236;22.452;2023-07-20T09:01:23;10.00;;;6.90;;
78430;SDS011;67727;50.236;22.452;2023-07-20T09:03:52;12.40;;;6.90;;
78430;SDS011;67727;50.236;22.452;2023-07-20T09:06:25;7.50;;;6.20;;
78430;SDS011;67727;50.236;22.452;2023-07-20T09:08:55;9.90;;;5.80;;
78430;SDS011;67727;50.236;22.452;2023-07-20T09:11:24;7.30;;;5.30;;
78430;SDS011;67727;50.236;22.452;2023-07-20T09:16:55;9.40;;;7.00;;
78430;SDS011;67727;50.236;22.452;2023-07-20T09:19:27;17.40;;;9.00;;
78430;SDS011;67727;50.236;22.452;2023-07-20T09:21:55;13.00;;;7.40;;
78430;SDS011;67727;50.236;22.452;2023-07-20T09:24:32;8.60;;;6.10;;
78430;SDS011;67727;50.236;22.452;2023-07-20T09:27:01;10.40;;;6.70;;
78430;SDS011;67727;50.236;22.452;2023-07-20T09:29:32;9.00;;;6.30;;
78430;SDS011;67727;50.236;22.452;2023-07-20T09:32:02;9.70;;;5.90;;
78430;SDS011;67727;50.236;22.452;2023-07-20T09:34:35;10.20;;;6.20;;
78430;SDS011;67727;50.236;22.452;2023-07-20T09:37:09;8.80;;;6.00;;
78430;SDS011;67727;50.236;22.452;2023-07-20T09:39:43;8.20;;;5.60;;
78430;SDS011;67727;50.236;22.452;2023-07-20T09:42:13;9.60;;;5.80;;
78430;SDS011;67727;50.236;22.452;2023-07-20T09:44:46;10.20;;;5.50;;
78430;SDS011;67727;50.236;22.452;2023-07-20T09:47:26;6.60;;;4.80;;
78430;SDS011;67727;50.236;22.452;2023-07-20T09:49:59;7.60;;;5.30;;
78430;SDS011;67727;50.236;22.452;2023-07-20T09:52:34;8.00;;;5.50;;
78430;SDS011;67727;50.236;22.452;2023-07-20T09:55:09;8.40;;;5.40;;
78430;SDS011;67727;50.236;22.452;2023-07-20T09:57:40;8.80;;;5.80;;
78430;SDS011;67727;50.236;22.452;2023-07-20T10:00:14;10.00;;;6.00;;
78430;SDS011;67727;50.236;22.452;2023-07-20T10:02:44;8.20;;;5.30;;
78430;SDS011;67727;50.236;22.452;2023-07-20T10:05:17;10.10;;;6.00;;
78430;SDS011;67727;50.236;22.452;2023-07-20T10:07:50;10.50;;;5.40;;
78430;SDS011;67727;50.236;22.452;2023-07-20T10:10:25;7.20;;;4.70;;
78430;SDS011;67727;50.236;22.452;2023-07-20T10:12:58;8.50;;;5.40;;
78430;SDS011;67727;50.236;22.452;2023-07-20T10:18:12;6.60;;;4.90;;
78430;SDS011;67727;50.236;22.452;2023-07-20T10:20:48;5.80;;;4.70;;
78430;SDS011;67727;50.236;22.452;2023-07-20T10:23:21;6.70;;;4.70;;
78430;SDS011;67727;50.236;22.452;2023-07-20T10:25:52;8.10;;;5.30;;
78430;SDS011;67727;50.236;22.452;2023-07-20T10:28:21;8.20;;;5.20;;
78430;SDS011;67727;50.236;22.452;2023-07-20T10:30:50;6.20;;;4.40;;
78430;SDS011;67727;50.236;22.452;2023-07-20T10:33:23;8.10;;;4.90;;
78430;SDS011;67727;50.236;22.452;2023-07-20T10:36:02;7.70;;;5.40;;
78430;SDS011;67727;50.236;22.452;2023-07-20T10:41:34;7.60;;;4.80;;
78430;SDS011;67727;50.236;22.452;2023-07-20T10:44:07;7.20;;;4.80;;
78430;SDS011;67727;50.236;22.452;2023-07-20T10:49:15;7.50;;;4.70;;
78430;SDS011;67727;50.236;22.452;2023-07-20T10:51:58;7.50;;;4.40;;
78430;SDS011;67727;50.236;22.452;2023-07-20T10:54:33;8.70;;;5.10;;
78430;SDS011;67727;50.236;22.452;2023-07-20T10:57:22;6.70;;;4.40;;
78430;SDS011;67727;50.236;22.452;2023-07-20T10:59:52;7.50;;;4.60;;
78430;SDS011;67727;50.236;22.452;2023-07-20T11:02:47;6.00;;;4.60;;
78430;SDS011;67727;50.236;22.452;2023-07-20T11:08:10;8.10;;;4.40;;
78430;SDS011;67727;50.236;22.452;2023-07-20T11:10:39;6.30;;;4.10;;
78430;SDS011;67727;50.236;22.452;2023-07-20T11:16:01;6.50;;;3.70;;
78430;SDS011;67727;50.236;22.452;2023-07-20T11:18:33;4.80;;;3.50;;
78430;SDS011;67727;50.236;22.452;2023-07-20T11:21:08;5.40;;;3.80;;
78430;SDS011;67727;50.236;22.452;2023-07-20T11:23:37;8.20;;;3.40;;
78430;SDS011;67727;50.236;22.452;2023-07-20T11:26:11;8.10;;;4.50;;
78430;SDS011;67727;50.236;22.452;2023-07-20T11:28:41;6.60;;;3.70;;
78430;SDS011;67727;50.236;22.452;2023-07-20T11:31:18;5.50;;;3.40;;
78430;SDS011;67727;50.236;22.452;2023-07-20T11:33:49;6.20;;;3.40;;
78430;SDS011;67727;50.236;22.452;2023-07-20T11:36:18;4.90;;;3.00;;
78430;SDS011;67727;50.236;22.452;2023-07-20T11:38:46;4.30;;;3.20;;
78430;SDS011;67727;50.236;22.452;2023-07-20T11:41:24;4.70;;;3.10;;
78430;SDS011;67727;50.236;22.452;2023-07-20T11:43:54;3.90;;;2.70;;
78430;SDS011;67727;50.236;22.452;2023-07-20T11:46:22;6.90;;;3.50;;
78430;SDS011;67727;50.236;22.452;2023-07-20T11:48:55;4.30;;;2.90;;
78430;SDS011;67727;50.236;22.452;2023-07-20T11:51:24;5.90;;;3.10;;
78430;SDS011;67727;50.236;22.452;2023-07-20T11:53:56;4.30;;;3.00;;
78430;SDS011;67727;50.236;22.452;2023-07-20T11:56:24;4.60;;;2.90;;
78430;SDS011;67727;50.236;22.452;2023-07-20T11:58:57;4.70;;;3.00;;
78430;SDS011;67727;50.236;22.452;2023-07-20T12:01:30;6.80;;;2.50;;
78430;SDS011;67727;50.236;22.452;2023-07-20T12:04:05;6.00;;;3.00;;
78430;SDS011;67727;50.236;22.452;2023-07-20T12:06:34;4.00;;;3.00;;
78430;SDS011;67727;50.236;22.452;2023-07-20T12:09:02;4.40;;;3.10;;
78430;SDS011;67727;50.236;22.452;2023-07-20T12:11:37;4.00;;;2.70;;
78430;SDS011;67727;50.236;22.452;2023-07-20T12:14:08;5.80;;;3.10;;
78430;SDS011;67727;50.236;22.452;2023-07-20T12:16:38;6.30;;;3.60;;
78430;SDS011;67727;50.236;22.452;2023-07-20T12:19:09;5.70;;;3.20;;
78430;SDS011;67727;50.236;22.452;2023-07-20T12:21:41;6.80;;;3.10;;
78430;SDS011;67727;50.236;22.452;2023-07-20T12:24:13;5.00;;;3.10;;
78430;SDS011;67727;50.236;22.452;2023-07-20T12:26:42;4.70;;;3.00;;
78430;SDS011;67727;50.236;22.452;2023-07-20T12:29:14;4.90;;;2.90;;
78430;SDS011;67727;50.236;22.452;2023-07-20T12:31:48;5.20;;;3.10;;
78430;SDS011;67727;50.236;22.452;2023-07-20T12:34:20;3.70;;;3.00;;
78430;SDS011;67727;50.236;22.452;2023-07-20T12:36:51;5.70;;;3.10;;
78430;SDS011;67727;50.236;22.452;2023-07-20T12:39:23;4.80;;;3.00;;
78430;SDS011;67727;50.236;22.452;2023-07-20T12:41:51;9.40;;;3.40;;
78430;SDS011;67727;50.236;22.452;2023-07-20T12:44:24;8.00;;;3.30;;
78430;SDS011;67727;50.236;22.452;2023-07-20T12:46:59;4.90;;;2.90;;
78430;SDS011;67727;50.236;22.452;2023-07-20T12:49:27;3.50;;;2.40;;
78430;SDS011;67727;50.236;22.452;2023-07-20T12:51:55;4.20;;;3.00;;
78430;SDS011;67727;50.236;22.452;2023-07-20T12:54:24;4.30;;;2.80;;
78430;SDS011;67727;50.236;22.452;2023-07-20T12:56:51;4.70;;;2.60;;
78430;SDS011;67727;50.236;22.452;2023-07-20T12:59:20;4.00;;;2.70;;
78430;SDS011;67727;50.236;22.452;2023-07-20T13:01:55;4.50;;;2.70;;
78430;SDS011;67727;50.236;22.452;2023-07-20T13:04:30;5.90;;;2.50;;
78430;SDS011;67727;50.236;22.452;2023-07-20T13:07:09;4.80;;;2.70;;
78430;SDS011;67727;50.236;22.452;2023-07-20T13:09:42;5.80;;;2.90;;
78430;SDS011;67727;50.236;22.452;2023-07-20T13:12:10;6.70;;;2.50;;
78430;SDS011;67727;50.236;22.452;2023-07-20T13:14:43;5.80;;;2.50;;
78430;SDS011;67727;50.236;22.452;2023-07-20T13:17:11;3.30;;;2.50;;
78430;SDS011;67727;50.236;22.452;2023-07-20T13:19:39;3.70;;;2.90;;
78430;SDS011;67727;50.236;22.452;2023-07-20T13:22:07;6.50;;;2.80;;
78430;SDS011;67727;50.236;22.452;2023-07-20T13:24:35;10.60;;;3.40;;
78430;SDS011;67727;50.236;22.452;2023-07-20T13:27:03;6.00;;;3.00;;
78430;SDS011;67727;50.236;22.452;2023-07-20T13:29:37;5.40;;;2.70;;
78430;SDS011;67727;50.236;22.452;2023-07-20T13:32:06;5.60;;;3.20;;
78430;SDS011;67727;50.236;22.452;2023-07-20T13:34:42;6.80;;;3.10;;
78430;SDS011;67727;50.236;22.452;2023-07-20T13:37:14;5.00;;;2.60;;
78430;SDS011;67727;50.236;22.452;2023-07-20T13:39:47;5.70;;;3.10;;
78430;SDS011;67727;50.236;22.452;2023-07-20T13:42:16;5.70;;;3.70;;
78430;SDS011;67727;50.236;22.452;2023-07-20T13:44:48;4.70;;;2.80;;
78430;SDS011;67727;50.236;22.452;2023-07-20T13:47:26;5.20;;;3.20;;
78430;SDS011;67727;50.236;22.452;2023-07-20T13:49:55;6.10;;;3.20;;
78430;SDS011;67727;50.236;22.452;2023-07-20T13:52:23;7.10;;;3.10;;
78430;SDS011;67727;50.236;22.452;2023-07-20T13:54:52;6.00;;;3.10;;
78430;SDS011;67727;50.236;22.452;2023-07-20T13:57:25;7.30;;;3.10;;
78430;SDS011;67727;50.236;22.452;2023-07-20T13:59:53;5.80;;;3.50;;
78430;SDS011;67727;50.236;22.452;2023-07-20T14:02:23;5.50;;;3.70;;
78430;SDS011;67727;50.236;22.452;2023-07-20T14:04:59;7.90;;;3.20;;
78430;SDS011;67727;50.236;22.452;2023-07-20T14:07:28;5.00;;;3.10;;
78430;SDS011;67727;50.236;22.452;2023-07-20T14:09:57;4.60;;;2.60;;
78430;SDS011;67727;50.236;22.452;2023-07-20T14:12:28;5.80;;;3.30;;
78430;SDS011;67727;50.236;22.452;2023-07-20T14:14:56;6.50;;;3.00;;
78430;SDS011;67727;50.236;22.452;2023-07-20T14:17:24;5.80;;;3.20;;
78430;SDS011;67727;50.236;22.452;2023-07-20T14:19:52;4.50;;;3.10;;
78430;SDS011;67727;50.236;22.452;2023-07-20T14:22:20;5.80;;;2.90;;
78430;SDS011;67727;50.236;22.452;2023-07-20T14:24:48;3.70;;;2.90;;
78430;SDS011;67727;50.236;22.452;2023-07-20T14:27:17;4.10;;;2.50;;
78430;SDS011;67727;50.236;22.452;2023-07-20T14:29:45;6.00;;;3.00;;
78430;SDS011;67727;50.236;22.452;2023-07-20T14:32:13;3.40;;;2.50;;
78430;SDS011;67727;50.236;22.452;2023-07-20T14:34:41;3.90;;;2.60;;
78430;SDS011;67727;50.236;22.452;2023-07-20T14:37:15;5.80;;;2.90;;
78430;SDS011;67727;50.236;22.452;2023-07-20T14:39:44;4.00;;;2.40;;
78430;SDS011;67727;50.236;22.452;2023-07-20T14:42:12;6.40;;;3.00;;
78430;SDS011;67727;50.236;22.452;2023-07-20T14:44:40;5.00;;;3.10;;
78430;SDS011;67727;50.236;22.452;2023-07-20T14:47:12;4.60;;;2.80;;
78430;SDS011;67727;50.236;22.452;2023-07-20T14:49:44;3.90;;;2.60;;
78430;SDS011;67727;50.236;22.452;2023-07-20T14:52:15;7.00;;;2.60;;
78430;SDS011;67727;50.236;22.452;2023-07-20T14:54:47;4.40;;;3.00;;
78430;SDS011;67727;50.236;22.452;2023-07-20T14:57:15;4.40;;;2.80;;
78430;SDS011;67727;50.236;22.452;2023-07-20T14:59:45;4.70;;;3.70;;
78430;SDS011;67727;50.236;22.452;2023-07-20T15:02:13;3.60;;;2.50;;
78430;SDS011;67727;50.236;22.452;2023-07-20T15:04:51;4.20;;;2.60;;
78430;SDS011;67727;50.236;22.452;2023-07-20T15:07:20;5.00;;;2.60;;
78430;SDS011;67727;50.236;22.452;2023-07-20T15:09:51;5.70;;;2.70;;
78430;SDS011;67727;50.236;22.452;2023-07-20T15:12:19;5.20;;;2.90;;
78430;SDS011;67727;50.236;22.452;2023-07-20T15:14:49;3.90;;;2.90;;
78430;SDS011;67727;50.236;22.452;2023-07-20T15:17:38;5.60;;;2.70;;